PADK/ADK METAR and TAF weather

Enter ICAO airport designator
Station Type Date Time Source
PADK METAR 2020/09/21 06:56 UTC NOAA

PADK 210656Z AUTO 30029G37KT 4SM -RA BR OVC015 10/08 A2967 RMK AO2 PK WND 31046/0622 SLP046 P0001 T01000083


Station Type Date Time Source
PADK Decoded METAR 2020/09/21 06:56 UTC NOAA

Adak Island, Adak Airport, AK, United States (PADK) 51-52-40N 176-38-45W 4M
Sep 21, 2020 - 02:56 AM EDT / 2020.09.21 0656 UTC
Wind: from the WNW (300 degrees) at 33 MPH (29 KT) gusting to 43 MPH (37 KT):0
Visibility: 4 mile(s):0
Sky conditions: overcast
Weather: light rain; mist
Precipitation last hour: 0.01 inches
Temperature: 50.0 F (10.0 C)
Dew Point: 46.9 F (8.3 C)
Relative Humidity: 89%
Pressure (altimeter): 29.67 in. Hg (1004 hPa)
ob: PADK 210656Z AUTO 30029G37KT 4SM -RA BR OVC015 10/08 A2967 RMK AO2 PK WND 31046/0622 SLP046 P0001 T01000083
cycle: 7

Station Type Date Time Source
PADK TAF 2007/04/07 12:54 UTC NOAA

TAF PADK 070404 33010G15KT 9999 FEW025 BKN030 OVC050 QNH2900INS T03/00Z TM01/18Z COR 1205 LAST NO
AMDS AFT 0712;

Example: see airport list